createdAt,value
2024-03-28T00:01:51.876Z,98859.14
2024-03-28T00:04:19.140Z,98853.60
2024-03-28T00:06:46.025Z,98851.16
2024-03-28T00:09:12.782Z,98847.18
2024-03-28T00:11:39.479Z,98848.85
2024-03-28T00:14:06.543Z,98852.98
2024-03-28T00:16:33.567Z,98855.42
2024-03-28T00:19:02.709Z,98855.98
2024-03-28T00:21:30.646Z,98860.27
2024-03-28T00:23:57.316Z,98866.55
2024-03-28T00:26:24.237Z,98867.42
2024-03-28T00:28:50.973Z,98868.58
2024-03-28T00:31:17.750Z,98870.84
2024-03-28T00:33:44.587Z,98878.31
2024-03-28T00:36:11.605Z,98876.49
2024-03-28T00:38:38.546Z,98872.54
2024-03-28T00:41:05.285Z,98872.48
2024-03-28T00:43:33.968Z,98876.10
2024-03-28T00:46:01.810Z,98878.59
2024-03-28T00:48:28.684Z,98880.66
2024-03-28T00:51:00.295Z,98882.45
2024-03-28T00:53:27.300Z,98886.84
2024-03-28T00:55:56.406Z,98888.09
2024-03-28T00:58:25.090Z,98885.28
2024-03-28T01:00:51.905Z,98882.55
2024-03-28T01:03:20.664Z,98886.98
2024-03-28T01:05:58.168Z,98893.19
2024-03-28T01:08:25.142Z,98899.88
2024-03-28T01:10:52.003Z,98901.91
2024-03-28T01:13:19.053Z,98903.38
2024-03-28T01:15:45.800Z,98909.69
2024-03-28T01:18:13.111Z,98905.14
2024-03-28T01:20:39.835Z,98904.71
2024-03-28T01:23:07.602Z,98904.69
2024-03-28T01:25:37.273Z,98904.73
2024-03-28T01:28:04.812Z,98904.34
2024-03-28T01:30:31.623Z,98901.99
2024-03-28T01:32:58.463Z,98899.33
2024-03-28T01:35:25.236Z,98897.11
2024-03-28T01:37:51.954Z,98896.71
2024-03-28T01:40:18.989Z,98894.58
2024-03-28T01:42:45.932Z,98889.25
2024-03-28T01:45:13.190Z,98892.77
2024-03-28T01:47:48.790Z,98892.36
2024-03-28T01:50:21.159Z,98891.76
2024-03-28T01:52:48.047Z,98890.54
2024-03-28T01:55:15.387Z,98888.27
2024-03-28T01:57:42.761Z,98889.86
2024-03-28T02:00:12.654Z,98890.95
2024-03-28T02:02:40.028Z,98891.65
2024-03-28T02:05:06.968Z,98896.90
2024-03-28T02:07:34.305Z,98907.81
2024-03-28T02:10:01.210Z,98908.90
2024-03-28T02:12:28.222Z,98915.16
2024-03-28T02:14:54.951Z,98918.78
2024-03-28T02:17:21.811Z,98921.08
2024-03-28T02:19:48.640Z,98923.64
2024-03-28T02:22:15.497Z,98924.05
2024-03-28T02:24:43.786Z,98924.56
2024-03-28T02:27:11.239Z,98928.74
2024-03-28T02:29:38.057Z,98931.56
2024-03-28T02:32:05.272Z,98935.44
2024-03-28T02:34:32.152Z,98933.77
2024-03-28T02:36:58.992Z,98923.13
2024-03-28T02:39:26.168Z,98929.95
2024-03-28T02:41:53.287Z,98934.81
2024-03-28T02:44:20.032Z,98940.63
2024-03-28T02:46:46.774Z,98945.77
2024-03-28T02:49:13.609Z,98947.42
2024-03-28T02:51:40.457Z,98943.59
2024-03-28T02:54:07.302Z,98944.09
2024-03-28T02:56:37.485Z,98948.05
2024-03-28T02:59:05.132Z,98949.77
2024-03-28T03:01:35.402Z,98948.02
2024-03-28T03:04:02.399Z,98949.69
2024-03-28T03:06:29.490Z,98950.91
2024-03-28T03:08:56.643Z,98957.06
2024-03-28T03:11:23.334Z,98966.00
2024-03-28T03:13:50.125Z,98969.20
2024-03-28T03:16:17.007Z,98969.89
2024-03-28T03:18:43.710Z,98973.45
2024-03-28T03:21:11.368Z,98972.60
2024-03-28T03:23:49.507Z,98979.19
2024-03-28T03:26:25.641Z,98981.40
2024-03-28T03:29:11.634Z,98981.55
2024-03-28T03:31:58.132Z,98979.98
2024-03-28T03:34:37.250Z,98975.52
2024-03-28T03:37:19.951Z,98971.02
2024-03-28T03:39:47.082Z,98970.67
2024-03-28T03:42:15.315Z,98972.68
2024-03-28T03:44:42.135Z,98974.02
2024-03-28T03:47:08.877Z,98972.13
2024-03-28T03:49:35.732Z,98969.73
2024-03-28T03:52:06.084Z,98972.48
2024-03-28T03:54:33.191Z,98973.60
2024-03-28T03:57:00.033Z,98971.86
2024-03-28T03:59:26.767Z,98970.20
2024-03-28T04:01:54.477Z,98969.37
2024-03-28T04:04:21.292Z,98969.23
2024-03-28T04:06:48.319Z,98956.73
2024-03-28T04:09:15.174Z,98949.85
2024-03-28T04:11:42.011Z,98939.02
2024-03-28T04:14:09.265Z,98935.42
2024-03-28T04:16:36.096Z,98953.23
2024-03-28T04:19:03.195Z,98961.44
2024-03-28T04:21:35.538Z,98954.81
2024-03-28T04:24:03.949Z,98949.45
2024-03-28T04:26:34.650Z,98946.64
2024-03-28T04:29:01.780Z,98948.85
2024-03-28T04:31:28.459Z,98959.52
2024-03-28T04:33:56.083Z,98950.02
2024-03-28T04:36:22.836Z,98940.24
2024-03-28T04:38:49.563Z,98932.44
2024-03-28T04:41:16.398Z,98929.68
2024-03-28T04:43:43.172Z,98929.73
2024-03-28T04:46:09.875Z,98925.89
2024-03-28T04:48:36.730Z,98941.20
2024-03-28T04:51:03.589Z,98950.26
2024-03-28T04:53:30.508Z,98957.10
2024-03-28T04:55:57.248Z,98947.71
2024-03-28T04:58:24.614Z,98948.23
2024-03-28T05:00:51.587Z,98952.33
2024-03-28T05:03:18.493Z,98956.89
2024-03-28T05:05:48.247Z,98960.92
2024-03-28T05:08:14.973Z,98972.45
2024-03-28T05:10:41.692Z,98985.08
2024-03-28T05:13:08.524Z,98987.55
2024-03-28T05:15:36.722Z,98985.45
2024-03-28T05:18:04.009Z,98985.42
2024-03-28T05:20:30.892Z,98997.74
2024-03-28T05:22:58.584Z,98999.91
2024-03-28T05:25:25.446Z,98994.48
2024-03-28T05:27:52.238Z,98986.08
2024-03-28T05:30:18.984Z,98990.38
2024-03-28T05:32:45.820Z,98995.88
2024-03-28T05:35:12.662Z,98988.19
2024-03-28T05:37:39.452Z,98993.29
2024-03-28T05:40:07.131Z,98999.70
2024-03-28T05:42:33.958Z,98999.79
2024-03-28T05:45:00.958Z,99004.83
2024-03-28T05:47:27.861Z,99016.03
2024-03-28T05:49:54.623Z,99021.36
2024-03-28T05:52:21.611Z,99031.81
2024-03-28T05:54:48.289Z,99037.95
2024-03-28T05:57:15.093Z,99041.02
2024-03-28T05:59:42.269Z,99031.23
2024-03-28T06:02:08.950Z,99025.52
2024-03-28T06:04:36.819Z,99032.13
2024-03-28T06:07:03.501Z,99039.21
2024-03-28T06:09:30.325Z,99041.39
2024-03-28T06:11:58.265Z,99045.06
2024-03-28T06:14:25.005Z,99043.98
2024-03-28T06:16:51.744Z,99053.28
2024-03-28T06:19:18.693Z,99049.89
2024-03-28T06:21:45.460Z,99054.27
2024-03-28T06:24:12.175Z,99060.48
2024-03-28T06:26:39.014Z,99061.36
2024-03-28T06:29:05.753Z,99066.02
2024-03-28T06:31:36.080Z,99072.33
2024-03-28T06:34:02.756Z,99074.23
2024-03-28T06:36:29.562Z,99073.84
2024-03-28T06:38:56.215Z,99084.79
2024-03-28T06:41:23.079Z,99101.77
2024-03-28T06:43:51.126Z,99117.30
2024-03-28T06:46:17.947Z,99136.58
2024-03-28T06:48:44.997Z,99131.32
2024-03-28T06:51:11.835Z,99131.65
2024-03-28T06:53:38.583Z,99137.54
2024-03-28T06:56:06.341Z,99141.08
2024-03-28T06:58:33.084Z,99146.11
2024-03-28T07:01:00.701Z,99145.08
2024-03-28T07:03:27.496Z,99149.31
2024-03-28T07:05:54.535Z,99147.45
2024-03-28T07:08:21.272Z,99145.52
2024-03-28T07:10:48.042Z,99148.65
2024-03-28T07:13:14.955Z,99155.45
2024-03-28T07:15:41.669Z,99155.77
2024-03-28T07:18:08.431Z,99157.16
2024-03-28T07:20:35.099Z,99163.77
2024-03-28T07:23:02.117Z,99160.19
2024-03-28T07:25:29.523Z,99171.21
2024-03-28T07:27:57.442Z,99178.23
2024-03-28T07:30:24.434Z,99187.34
2024-03-28T07:32:51.249Z,99195.58
2024-03-28T07:35:17.967Z,99196.80
2024-03-28T07:37:44.807Z,99202.63
2024-03-28T07:40:11.979Z,99212.91
2024-03-28T07:42:38.693Z,99222.45
2024-03-28T07:45:06.424Z,99228.38
2024-03-28T07:47:34.314Z,99232.66
2024-03-28T07:50:01.683Z,99233.98
2024-03-28T07:52:28.568Z,99237.38
2024-03-28T07:54:55.363Z,99224.87
2024-03-28T07:57:22.104Z,99214.06
2024-03-28T07:59:49.048Z,99208.13
2024-03-28T08:02:15.891Z,99205.73
2024-03-28T08:04:42.938Z,99199.43
2024-03-28T08:07:09.885Z,99201.64
2024-03-28T08:09:36.623Z,99197.38
2024-03-28T08:12:09.300Z,99193.29
2024-03-28T08:14:36.270Z,99191.52
2024-03-28T08:17:03.307Z,99188.55
2024-03-28T08:19:30.110Z,99178.52
2024-03-28T08:21:57.801Z,99177.49
2024-03-28T08:24:27.521Z,99174.61
2024-03-28T08:26:55.833Z,99182.82
2024-03-28T08:29:23.193Z,99187.42
2024-03-28T08:31:49.877Z,99181.06
2024-03-28T08:34:17.210Z,99178.05
2024-03-28T08:36:45.711Z,99170.09
2024-03-28T08:39:13.622Z,99169.06
2024-03-28T08:41:42.194Z,99170.46
2024-03-28T08:44:13.024Z,99167.06
2024-03-28T08:46:42.109Z,99157.29
2024-03-28T08:49:10.824Z,99152.52
2024-03-28T08:51:39.362Z,99150.34
2024-03-28T08:54:07.230Z,99148.06
2024-03-28T08:56:35.583Z,99140.13
2024-03-28T08:59:05.529Z,99134.60
2024-03-28T09:01:32.500Z,99125.12
2024-03-28T09:03:59.405Z,99110.19
2024-03-28T09:06:26.154Z,99100.52
2024-03-28T09:08:52.985Z,99102.64
2024-03-28T09:11:19.728Z,99106.29
2024-03-28T09:13:47.933Z,99105.68
2024-03-28T09:16:14.642Z,99095.92
2024-03-28T09:18:43.032Z,99089.73
2024-03-28T09:21:12.729Z,99085.46
2024-03-28T09:23:42.034Z,99083.28
2024-03-28T09:26:09.485Z,99074.08
2024-03-28T09:28:36.226Z,99077.21
2024-03-28T09:31:05.083Z,99078.95
2024-03-28T09:33:33.185Z,99081.86
2024-03-28T09:36:01.992Z,99086.70
2024-03-28T09:38:28.716Z,99079.60
2024-03-28T09:40:56.383Z,99075.02
2024-03-28T09:43:27.951Z,99063.77
2024-03-28T09:45:55.796Z,99068.64
2024-03-28T09:48:22.631Z,99091.67
2024-03-28T09:50:49.591Z,99119.57
2024-03-28T09:53:17.061Z,99126.20
2024-03-28T09:55:45.011Z,99114.69
2024-03-28T09:58:11.856Z,99104.96
2024-03-28T10:00:38.998Z,99102.86
2024-03-28T10:03:26.121Z,99111.39
2024-03-28T10:05:52.955Z,99136.23
2024-03-28T10:08:19.696Z,99134.98
2024-03-28T10:10:48.312Z,99132.46
2024-03-28T10:13:15.430Z,99127.95
2024-03-28T10:15:42.813Z,99117.88
2024-03-28T10:18:10.170Z,99123.30
2024-03-28T10:20:38.333Z,99130.45
2024-03-28T10:23:09.073Z,99129.41
2024-03-28T10:25:36.170Z,99138.83
2024-03-28T10:28:03.562Z,99126.98
2024-03-28T10:30:31.016Z,99120.43
2024-03-28T10:33:10.556Z,99119.95
2024-03-28T10:35:43.855Z,99132.02
2024-03-28T10:38:16.354Z,99126.23
2024-03-28T10:40:44.359Z,99122.41
2024-03-28T10:43:15.837Z,99129.66
2024-03-28T10:45:44.235Z,99124.87
2024-03-28T10:48:15.049Z,99127.75
2024-03-28T10:51:07.283Z,99138.83
2024-03-28T10:53:59.446Z,99140.85
2024-03-28T10:56:27.008Z,99151.05
2024-03-28T10:58:55.766Z,99155.46
2024-03-28T11:01:23.345Z,99158.81
2024-03-28T11:03:51.026Z,99159.92
2024-03-28T11:06:19.894Z,99138.22
2024-03-28T11:08:46.830Z,99142.46
2024-03-28T11:11:13.767Z,99142.34
2024-03-28T11:13:40.504Z,99156.23
2024-03-28T11:16:11.249Z,99160.70
2024-03-28T11:18:38.082Z,99145.21
2024-03-28T11:21:05.336Z,99148.80
2024-03-28T11:23:33.390Z,99145.71
2024-03-28T11:26:04.883Z,99144.45
2024-03-28T11:28:32.839Z,99138.11
2024-03-28T11:30:59.976Z,99139.96
2024-03-28T11:33:35.126Z,99132.70
2024-03-28T11:36:08.919Z,99129.05
2024-03-28T11:38:39.853Z,99139.64
2024-03-28T11:41:07.002Z,99144.45
2024-03-28T11:43:33.909Z,99133.70
2024-03-28T11:46:01.836Z,99128.83
2024-03-28T11:48:37.466Z,99116.94
2024-03-28T11:51:05.343Z,99106.67
2024-03-28T11:53:36.218Z,99103.98
2024-03-28T11:56:04.693Z,99109.86
2024-03-28T11:58:31.797Z,99103.20
2024-03-28T12:01:00.796Z,99096.16
2024-03-28T12:03:27.945Z,99101.77
2024-03-28T12:05:56.138Z,99110.05
2024-03-28T12:08:34.984Z,99114.70
2024-03-28T12:11:12.082Z,99120.96
2024-03-28T12:13:40.179Z,99121.16
2024-03-28T12:16:07.695Z,99118.10
2024-03-28T12:18:37.890Z,99117.70
2024-03-28T12:21:06.794Z,99122.98
2024-03-28T12:23:34.427Z,99125.92
2024-03-28T12:26:02.530Z,99115.17
2024-03-28T12:28:30.360Z,99122.23
2024-03-28T12:30:58.734Z,99131.14
2024-03-28T12:33:26.498Z,99133.58
2024-03-28T12:35:55.494Z,99131.57
2024-03-28T12:38:23.136Z,99135.73
2024-03-28T12:40:52.627Z,99138.48
2024-03-28T12:43:22.465Z,99128.89
2024-03-28T12:45:50.215Z,99128.05
2024-03-28T12:48:18.822Z,99125.73
2024-03-28T12:50:48.344Z,99137.33
2024-03-28T12:53:15.365Z,99144.71
2024-03-28T12:55:42.025Z,99142.86
2024-03-28T12:58:08.844Z,99146.09
2024-03-28T13:00:35.586Z,99148.64
2024-03-28T13:03:03.075Z,99151.32
2024-03-28T13:05:29.884Z,99155.38
2024-03-28T13:07:57.238Z,99153.95
2024-03-28T13:10:24.143Z,99158.07
2024-03-28T13:12:50.832Z,99162.36
2024-03-28T13:15:17.510Z,99165.16
2024-03-28T13:17:44.225Z,99169.98
2024-03-28T13:20:14.833Z,99175.46
2024-03-28T13:22:44.579Z,99173.34
2024-03-28T13:25:13.033Z,99175.58
2024-03-28T13:30:10.735Z,99177.09
2024-03-28T13:32:37.536Z,99174.46
2024-03-28T13:35:05.249Z,99177.02
2024-03-28T13:37:31.966Z,99178.11
2024-03-28T13:39:58.782Z,99177.02
2024-03-28T13:42:26.270Z,99176.02
2024-03-28T13:44:53.441Z,99182.83
2024-03-28T13:47:20.128Z,99180.09
2024-03-28T13:49:46.870Z,99191.23
2024-03-28T13:52:13.607Z,99195.75
2024-03-28T13:54:40.344Z,99206.50
2024-03-28T13:57:07.088Z,99209.95
2024-03-28T13:59:33.924Z,99207.75
2024-03-28T14:02:00.779Z,99204.52
2024-03-28T14:04:27.424Z,99206.48
2024-03-28T14:06:54.115Z,99203.14
2024-03-28T14:09:20.884Z,99213.41
2024-03-28T14:11:47.634Z,99213.33
2024-03-28T14:14:16.107Z,99222.04
2024-03-28T14:16:43.105Z,99229.02
2024-03-28T14:19:10.142Z,99236.29
2024-03-28T14:21:36.944Z,99249.08
2024-03-28T14:24:04.054Z,99252.71
2024-03-28T14:26:30.838Z,99261.47
2024-03-28T14:28:57.569Z,99262.54
2024-03-28T14:31:24.601Z,99264.61
2024-03-28T14:33:52.147Z,99269.30
2024-03-28T14:36:19.951Z,99264.77
2024-03-28T14:38:46.653Z,99267.29
2024-03-28T14:41:13.521Z,99270.69
2024-03-28T14:43:41.824Z,99278.48
2024-03-28T14:46:10.215Z,99280.12
2024-03-28T14:48:38.165Z,99280.38
2024-03-28T14:51:07.136Z,99286.89
2024-03-28T14:53:34.089Z,99284.34
2024-03-28T14:56:02.510Z,99286.35
2024-03-28T14:58:37.841Z,99283.27
2024-03-28T15:01:12.765Z,99277.10
2024-03-28T15:03:39.675Z,99280.52
2024-03-28T15:06:06.518Z,99289.11
2024-03-28T15:08:33.258Z,99295.45
2024-03-28T15:11:04.976Z,99300.27
2024-03-28T15:13:34.446Z,99301.39
2024-03-28T15:16:02.079Z,99302.94
2024-03-28T15:18:28.777Z,99306.75
2024-03-28T15:20:55.790Z,99303.42
2024-03-28T15:23:22.844Z,99300.96
2024-03-28T15:25:49.984Z,99293.25
2024-03-28T15:28:16.712Z,99295.66
2024-03-28T15:30:43.401Z,99298.21
2024-03-28T15:33:10.698Z,99314.98
2024-03-28T15:35:37.534Z,99335.05
2024-03-28T15:38:04.711Z,99335.95
2024-03-28T15:40:31.433Z,99340.77
2024-03-28T15:42:59.391Z,99360.54
2024-03-28T15:45:26.337Z,99369.20
2024-03-28T15:47:53.180Z,99352.65
2024-03-28T15:50:19.862Z,99348.69
2024-03-28T15:52:50.343Z,99345.79
2024-03-28T15:55:17.709Z,99345.35
2024-03-28T15:57:44.951Z,99345.73
2024-03-28T16:00:13.214Z,99339.25
2024-03-28T16:02:41.505Z,99335.42
2024-03-28T16:05:09.570Z,99333.31
2024-03-28T16:07:36.837Z,99333.89
2024-03-28T16:10:03.973Z,99347.13
2024-03-28T16:12:31.049Z,99340.54
2024-03-28T16:14:57.863Z,99355.05
2024-03-28T16:17:24.571Z,99362.48
2024-03-28T16:19:51.343Z,99368.48
2024-03-28T16:22:19.324Z,99378.60
2024-03-28T16:24:46.921Z,99397.02
2024-03-28T16:27:15.555Z,99404.60
2024-03-28T16:29:42.398Z,99405.80
2024-03-28T16:32:09.255Z,99417.13
2024-03-28T16:34:36.008Z,99423.17
2024-03-28T16:37:05.101Z,99432.86
2024-03-28T16:39:31.814Z,99432.27
2024-03-28T16:41:58.659Z,99437.85
2024-03-28T16:44:25.502Z,99430.33
2024-03-28T16:46:52.344Z,99434.41
2024-03-28T16:49:19.110Z,99440.73
2024-03-28T16:51:45.825Z,99444.88
2024-03-28T16:54:12.671Z,99448.84
2024-03-28T16:56:39.320Z,99447.69
2024-03-28T16:59:06.155Z,99440.44
2024-03-28T17:01:33.121Z,99434.51
2024-03-28T17:04:01.298Z,99443.34
2024-03-28T17:06:28.109Z,99449.63
2024-03-28T17:08:55.049Z,99440.44
2024-03-28T17:11:22.140Z,99432.96
2024-03-28T17:13:50.370Z,99440.71
2024-03-28T17:16:17.109Z,99447.86
2024-03-28T17:18:43.951Z,99455.38
2024-03-28T17:21:10.901Z,99458.09
2024-03-28T17:23:37.738Z,99469.05
2024-03-28T17:26:08.934Z,99469.28
2024-03-28T17:28:36.451Z,99467.09
2024-03-28T17:31:07.182Z,99469.02
2024-03-28T17:33:34.273Z,99469.74
2024-03-28T17:36:02.197Z,99474.80
2024-03-28T17:38:29.067Z,99475.38
2024-03-28T17:40:55.876Z,99476.88
2024-03-28T17:43:22.718Z,99482.17
2024-03-28T17:45:50.582Z,99490.00
2024-03-28T17:48:18.372Z,99492.30
2024-03-28T17:50:45.291Z,99496.05
2024-03-28T17:53:13.227Z,99498.55
2024-03-28T17:55:41.553Z,99500.63
2024-03-28T17:58:08.814Z,99509.44
2024-03-28T18:00:36.539Z,99512.23
2024-03-28T18:03:04.378Z,99517.46
2024-03-28T18:05:34.023Z,99521.96
2024-03-28T18:08:02.307Z,99529.44
2024-03-28T18:10:30.072Z,99545.17
2024-03-28T18:12:56.802Z,99558.39
2024-03-28T18:15:23.540Z,99552.95
2024-03-28T18:17:50.386Z,99554.65
2024-03-28T18:20:19.274Z,99561.08
2024-03-28T18:22:47.782Z,99567.09
2024-03-28T18:25:14.424Z,99573.86
2024-03-28T18:27:41.131Z,99576.33
2024-03-28T18:30:08.838Z,99590.48
2024-03-28T18:32:35.520Z,99601.54
2024-03-28T18:35:02.717Z,99604.43
2024-03-28T18:37:30.959Z,99613.15
2024-03-28T18:39:57.701Z,99611.71
2024-03-28T18:42:24.333Z,99616.27
2024-03-28T18:44:51.179Z,99625.11
2024-03-28T18:47:19.581Z,99628.20
2024-03-28T18:49:46.330Z,99625.73
2024-03-28T18:52:13.075Z,99625.49
2024-03-28T18:54:39.747Z,99625.50
2024-03-28T18:57:06.619Z,99637.46
2024-03-28T18:59:33.458Z,99642.67
2024-03-28T19:02:00.304Z,99640.25
2024-03-28T19:04:27.264Z,99634.98
2024-03-28T19:06:54.557Z,99640.44
2024-03-28T19:09:21.267Z,99649.05
2024-03-28T19:11:47.891Z,99657.34
2024-03-28T19:14:14.570Z,99667.48
2024-03-28T19:16:41.218Z,99671.30
2024-03-28T19:19:07.993Z,99678.55
2024-03-28T19:21:34.668Z,99680.90
2024-03-28T19:24:01.315Z,99689.00
2024-03-28T19:26:28.142Z,99695.69
2024-03-28T19:28:54.791Z,99700.42
2024-03-28T19:31:22.920Z,99703.12
2024-03-28T19:33:50.109Z,99708.77
2024-03-28T19:36:18.071Z,99711.34
2024-03-28T19:38:44.744Z,99715.19
2024-03-28T19:41:20.132Z,99719.87
2024-03-28T19:43:47.516Z,99724.98
2024-03-28T19:46:14.250Z,99726.93
2024-03-28T19:48:40.917Z,99728.01
2024-03-28T19:51:08.123Z,99742.81
2024-03-28T19:53:34.957Z,99749.95
2024-03-28T19:56:04.474Z,99752.92
2024-03-28T19:58:31.716Z,99752.22
2024-03-28T20:00:58.467Z,99756.95
2024-03-28T20:03:25.199Z,99757.88
2024-03-28T20:05:51.873Z,99767.86
2024-03-28T20:08:18.524Z,99774.20
2024-03-28T20:10:45.196Z,99771.05
2024-03-28T20:13:12.143Z,99776.59
2024-03-28T20:15:38.789Z,99786.11
2024-03-28T20:18:07.369Z,99788.86
2024-03-28T20:20:34.052Z,99777.06
2024-03-28T20:23:00.692Z,99774.23
2024-03-28T20:25:27.338Z,99791.63
2024-03-28T20:27:54.119Z,99795.41
2024-03-28T20:30:20.966Z,99795.27
2024-03-28T20:32:47.909Z,99799.87
2024-03-28T20:35:14.857Z,99808.33
2024-03-28T20:37:41.594Z,99810.93
2024-03-28T20:40:09.863Z,99804.96
2024-03-28T20:42:36.667Z,99805.76
2024-03-28T20:45:03.478Z,99816.23
2024-03-28T20:47:30.154Z,99830.64
2024-03-28T20:49:56.810Z,99811.79
2024-03-28T20:52:24.278Z,99804.27
2024-03-28T20:54:51.018Z,99819.46
2024-03-28T20:57:17.862Z,99831.46
2024-03-28T20:59:45.221Z,99825.30
2024-03-28T21:02:11.952Z,99819.94
2024-03-28T21:04:39.853Z,99827.46
2024-03-28T21:07:06.572Z,99823.48
2024-03-28T21:09:53.405Z,99821.64
2024-03-28T21:12:24.131Z,99813.90
2024-03-28T21:14:52.401Z,99813.17
2024-03-28T21:17:19.404Z,99817.13
2024-03-28T21:19:47.570Z,99828.38
2024-03-28T21:22:15.125Z,99832.70
2024-03-28T21:24:42.309Z,99823.17
2024-03-28T21:27:09.581Z,99823.81
2024-03-28T21:29:36.813Z,99837.80
2024-03-28T21:32:05.213Z,99837.15
2024-03-28T21:34:32.709Z,99837.42
2024-03-28T21:36:59.900Z,99846.55
2024-03-28T21:39:26.745Z,99851.36
2024-03-28T21:41:53.685Z,99855.98
2024-03-28T21:44:20.431Z,99860.42
2024-03-28T21:46:47.683Z,99861.22
2024-03-28T21:49:14.440Z,99865.64
2024-03-28T21:51:41.260Z,99872.52
2024-03-28T21:54:08.004Z,99881.20
2024-03-28T21:56:34.854Z,99888.16
2024-03-28T21:59:01.686Z,99895.19
2024-03-28T22:01:28.420Z,99899.09
2024-03-28T22:03:55.808Z,99916.52
2024-03-28T22:06:23.030Z,99923.80
2024-03-28T22:08:49.767Z,99924.40
2024-03-28T22:11:16.624Z,99933.87
2024-03-28T22:13:43.788Z,99938.42
2024-03-28T22:16:10.508Z,99947.98
2024-03-28T22:18:37.548Z,99942.60
2024-03-28T22:21:05.010Z,99949.25
2024-03-28T22:23:31.849Z,99946.69
2024-03-28T22:25:58.914Z,99947.08
2024-03-28T22:28:26.372Z,99949.63
2024-03-28T22:30:53.190Z,99953.56
2024-03-28T22:33:20.237Z,99945.84
2024-03-28T22:35:53.059Z,99943.57
2024-03-28T22:38:19.965Z,99951.84
2024-03-28T22:40:48.971Z,99957.89
2024-03-28T22:43:15.595Z,99962.98
2024-03-28T22:45:42.364Z,99962.80
2024-03-28T22:48:09.314Z,99966.51
2024-03-28T22:50:36.119Z,99969.05
2024-03-28T22:53:03.599Z,99963.84
2024-03-28T22:55:30.523Z,99977.12
2024-03-28T22:57:57.177Z,99986.45
2024-03-28T23:00:24.002Z,99990.17
2024-03-28T23:02:51.807Z,99990.08
2024-03-28T23:05:18.600Z,99995.86
2024-03-28T23:07:45.857Z,99992.72
2024-03-28T23:10:13.111Z,99991.08
2024-03-28T23:12:39.954Z,100004.92
2024-03-28T23:15:07.940Z,100010.66
2024-03-28T23:17:34.761Z,100010.25
2024-03-28T23:20:03.684Z,100013.48
2024-03-28T23:22:30.398Z,100017.12
2024-03-28T23:24:58.157Z,100013.77
2024-03-28T23:27:25.186Z,100011.64
2024-03-28T23:29:51.942Z,100002.39
2024-03-28T23:32:18.584Z,100010.30
2024-03-28T23:34:45.322Z,100011.67
2024-03-28T23:37:12.161Z,100014.40
2024-03-28T23:39:39.208Z,100020.18
2024-03-28T23:42:06.550Z,100017.61
2024-03-28T23:44:34.028Z,100014.18
2024-03-28T23:47:00.892Z,100021.20
2024-03-28T23:49:28.145Z,100027.29
2024-03-28T23:51:54.969Z,100033.95
2024-03-28T23:54:21.706Z,100037.70
2024-03-28T23:56:48.437Z,100036.52
2024-03-28T23:59:15.176Z,100036.80
